createdAt,value
2023-05-28T00:01:34.521Z,13.06
2023-05-28T00:04:07.663Z,13.05
2023-05-28T00:06:40.980Z,13.07
2023-05-28T00:09:14.086Z,13.00
2023-05-28T00:11:47.390Z,12.98
2023-05-28T00:14:21.155Z,12.98
2023-05-28T00:16:56.337Z,12.83
2023-05-28T00:19:29.607Z,12.76
2023-05-28T00:22:02.762Z,12.67
2023-05-28T00:24:36.262Z,12.50
2023-05-28T00:27:09.408Z,12.48
2023-05-28T00:29:44.696Z,12.38
2023-05-28T00:32:19.198Z,12.41
2023-05-28T00:34:52.291Z,12.49
2023-05-28T00:37:25.454Z,12.43
2023-05-28T00:39:58.613Z,12.49
2023-05-28T00:42:32.133Z,12.40
2023-05-28T00:45:06.238Z,12.37
2023-05-28T00:47:41.452Z,12.36
2023-05-28T00:50:17.803Z,12.37
2023-05-28T00:52:53.127Z,12.32
2023-05-28T00:55:26.842Z,12.19
2023-05-28T00:58:06.603Z,12.17
2023-05-28T01:00:40.610Z,12.17
2023-05-28T01:03:15.120Z,12.14
2023-05-28T01:05:48.590Z,12.08
2023-05-28T01:08:21.867Z,12.05
2023-05-28T01:10:55.112Z,12.05
2023-05-28T01:13:28.367Z,12.02
2023-05-28T01:20:14.933Z,11.96
2023-05-28T01:22:54.780Z,11.95
2023-05-28T01:25:30.059Z,11.95
2023-05-28T01:28:03.686Z,12.04
2023-05-28T01:30:36.765Z,11.86
2023-05-28T01:33:09.882Z,11.79
2023-05-28T01:35:43.582Z,11.69
2023-05-28T01:38:18.788Z,11.76
2023-05-28T01:40:56.039Z,11.74
2023-05-28T01:43:29.725Z,11.66
2023-05-28T01:46:03.710Z,11.63
2023-05-28T01:48:36.993Z,11.55
2023-05-28T01:51:10.065Z,11.51
2023-05-28T01:53:43.124Z,11.38
2023-05-28T01:56:17.848Z,11.26
2023-05-28T01:58:50.914Z,11.39
2023-05-28T02:01:33.514Z,11.38
2023-05-28T02:04:06.704Z,11.31
2023-05-28T02:06:42.250Z,11.26
2023-05-28T02:09:15.499Z,11.23
2023-05-28T02:11:50.390Z,11.18
2023-05-28T02:14:23.495Z,11.15
2023-05-28T02:16:56.560Z,11.17
2023-05-28T02:19:29.736Z,11.19
2023-05-28T02:22:02.890Z,11.20
2023-05-28T02:24:35.993Z,11.25
2023-05-28T02:27:10.979Z,11.23
2023-05-28T02:29:44.528Z,11.20
2023-05-28T02:32:17.619Z,11.17
2023-05-28T02:34:51.770Z,11.09
2023-05-28T02:37:25.514Z,10.97
2023-05-28T02:39:58.586Z,11.02
2023-05-28T02:42:33.057Z,10.97
2023-05-28T02:45:07.739Z,10.98
2023-05-28T02:47:41.137Z,10.97
2023-05-28T02:50:14.305Z,10.95
2023-05-28T02:52:47.399Z,10.86
2023-05-28T02:55:20.541Z,10.83
2023-05-28T02:57:55.301Z,10.85
2023-05-28T03:00:28.437Z,10.73
2023-05-28T03:03:01.770Z,10.72
2023-05-28T03:05:34.986Z,10.70
2023-05-28T03:08:08.080Z,10.72
2023-05-28T03:10:41.181Z,10.78
2023-05-28T03:13:15.623Z,10.80
2023-05-28T03:15:48.722Z,10.76
2023-05-28T03:18:21.791Z,10.69
2023-05-28T03:20:55.008Z,10.71
2023-05-28T03:23:28.082Z,10.66
2023-05-28T03:26:01.148Z,10.60
2023-05-28T03:28:35.659Z,10.56
2023-05-28T03:31:08.749Z,10.58
2023-05-28T03:33:41.848Z,10.65
2023-05-28T03:36:14.874Z,10.64
2023-05-28T03:38:48.147Z,10.70
2023-05-28T03:41:21.485Z,10.67
2023-05-28T03:43:55.848Z,10.59
2023-05-28T03:46:28.990Z,10.58
2023-05-28T03:49:02.150Z,10.63
2023-05-28T03:51:35.371Z,10.65
2023-05-28T03:54:08.474Z,10.62
2023-05-28T03:56:41.721Z,10.63
2023-05-28T03:59:16.160Z,10.61
2023-05-28T04:01:49.247Z,10.69
2023-05-28T04:04:22.581Z,10.74
2023-05-28T04:06:55.795Z,10.72
2023-05-28T04:09:29.089Z,10.77
2023-05-28T04:12:03.972Z,10.82
2023-05-28T04:14:38.363Z,10.85
2023-05-28T04:17:13.856Z,10.85
2023-05-28T04:19:46.946Z,10.93
2023-05-28T04:22:19.974Z,10.97
2023-05-28T04:24:56.658Z,10.89
2023-05-28T04:27:29.775Z,10.97
2023-05-28T04:30:04.485Z,10.77
2023-05-28T04:32:40.271Z,10.92
2023-05-28T04:35:13.713Z,10.98
2023-05-28T04:37:46.905Z,10.96
2023-05-28T04:40:19.983Z,11.03
2023-05-28T04:42:54.896Z,11.17
2023-05-28T04:45:29.348Z,11.24
2023-05-28T04:48:03.232Z,11.27
2023-05-28T04:50:37.604Z,11.40
2023-05-28T04:53:10.639Z,11.59
2023-05-28T04:55:43.830Z,11.91
2023-05-28T04:58:16.942Z,12.29
2023-05-28T05:00:52.226Z,12.71
2023-05-28T05:03:25.451Z,13.11
2023-05-28T05:05:58.640Z,13.40
2023-05-28T05:08:31.943Z,13.71
2023-05-28T05:11:07.551Z,13.79
2023-05-28T05:13:40.905Z,13.95
2023-05-28T05:16:15.430Z,14.15
2023-05-28T05:18:48.688Z,14.55
2023-05-28T05:21:22.342Z,15.04
2023-05-28T05:23:55.533Z,15.42
2023-05-28T05:26:28.643Z,16.11
2023-05-28T05:29:01.792Z,16.50
2023-05-28T05:31:36.413Z,16.67
2023-05-28T05:34:09.580Z,17.00
2023-05-28T05:36:42.714Z,17.25
2023-05-28T05:39:16.109Z,17.50
2023-05-28T05:41:49.223Z,17.85
2023-05-28T05:44:22.944Z,18.08
2023-05-28T05:46:57.612Z,18.31
2023-05-28T05:49:30.761Z,18.53
2023-05-28T05:52:03.868Z,18.85
2023-05-28T05:54:36.992Z,18.78
2023-05-28T05:57:11.056Z,19.21
2023-05-28T05:59:44.350Z,19.59
2023-05-28T06:02:19.097Z,20.02
2023-05-28T06:04:52.964Z,20.34
2023-05-28T06:07:26.199Z,20.63
2023-05-28T06:09:59.423Z,20.88
2023-05-28T06:12:32.552Z,21.09
2023-05-28T06:15:07.671Z,21.04
2023-05-28T06:17:42.532Z,21.42
2023-05-28T06:20:16.247Z,21.63
2023-05-28T06:22:49.467Z,21.99
2023-05-28T06:25:23.467Z,22.27
2023-05-28T06:27:56.912Z,22.57
2023-05-28T06:30:30.543Z,22.52
2023-05-28T06:33:05.192Z,22.80
2023-05-28T06:35:38.545Z,23.20
2023-05-28T06:38:11.749Z,23.43
2023-05-28T06:44:29.606Z,24.23
2023-05-28T06:47:02.856Z,24.55
2023-05-28T06:49:37.539Z,24.74
2023-05-28T06:52:10.754Z,24.45
2023-05-28T06:54:43.941Z,24.35
2023-05-28T06:57:17.064Z,24.90
2023-05-28T06:59:50.212Z,25.09
2023-05-28T07:02:23.291Z,24.99
2023-05-28T07:04:57.913Z,25.35
2023-05-28T07:07:31.368Z,25.73
2023-05-28T07:10:05.183Z,25.88
2023-05-28T07:12:38.397Z,25.96
2023-05-28T07:15:12.554Z,25.97
2023-05-28T07:17:59.828Z,26.23
2023-05-28T07:20:34.449Z,26.34
2023-05-28T07:23:07.724Z,26.89
2023-05-28T07:25:42.696Z,26.73
2023-05-28T07:28:15.951Z,26.52
2023-05-28T07:30:49.140Z,25.96
2023-05-28T07:33:22.341Z,26.17
2023-05-28T07:35:57.364Z,26.57
2023-05-28T07:38:30.521Z,26.90
2023-05-28T07:41:03.671Z,27.18
2023-05-28T07:43:36.883Z,27.45
2023-05-28T07:46:10.099Z,27.78
2023-05-28T07:48:44.603Z,27.82
2023-05-28T07:51:19.647Z,28.00
2023-05-28T07:53:53.038Z,28.38
2023-05-28T07:56:27.318Z,28.78
2023-05-28T07:59:00.487Z,28.44
2023-05-28T08:01:35.412Z,27.75
2023-05-28T08:04:08.751Z,28.17
2023-05-28T08:06:43.472Z,28.52
2023-05-28T08:09:18.647Z,28.64
2023-05-28T08:11:52.141Z,28.16
2023-05-28T08:14:25.493Z,27.51
2023-05-28T08:16:58.771Z,27.34
2023-05-28T08:19:32.048Z,27.83
2023-05-28T08:22:07.702Z,27.35
2023-05-28T08:24:41.204Z,27.33
2023-05-28T08:27:14.449Z,27.28
2023-05-28T08:29:48.125Z,26.95
2023-05-28T08:32:21.643Z,27.28
2023-05-28T08:34:54.978Z,27.26
2023-05-28T08:37:29.530Z,26.29
2023-05-28T08:40:02.736Z,26.53
2023-05-28T08:42:36.098Z,26.61
2023-05-28T08:45:10.378Z,26.54
2023-05-28T08:47:44.786Z,26.65
2023-05-28T08:50:18.339Z,26.79
2023-05-28T08:52:53.860Z,27.07
2023-05-28T08:55:27.054Z,26.98
2023-05-28T08:58:00.523Z,27.10
2023-05-28T09:00:33.931Z,27.22
2023-05-28T09:03:09.238Z,27.43
2023-05-28T09:05:42.719Z,27.49
2023-05-28T09:08:17.444Z,27.33
2023-05-28T09:10:50.640Z,26.89
2023-05-28T09:13:23.980Z,26.42
2023-05-28T09:15:58.659Z,26.81
2023-05-28T09:18:32.196Z,26.94
2023-05-28T09:21:11.875Z,27.01
2023-05-28T09:23:52.333Z,26.48
2023-05-28T09:26:28.685Z,26.00
2023-05-28T09:29:02.400Z,26.04
2023-05-28T09:31:35.618Z,25.46
2023-05-28T09:34:08.918Z,25.02
2023-05-28T09:36:42.855Z,24.98
2023-05-28T09:39:17.369Z,24.65
2023-05-28T09:42:01.517Z,24.92
2023-05-28T09:44:35.624Z,24.97
2023-05-28T09:47:16.012Z,25.10
2023-05-28T09:49:50.962Z,25.50
2023-05-28T09:52:25.220Z,25.59
2023-05-28T09:55:01.140Z,25.80
2023-05-28T09:57:36.112Z,26.04
2023-05-28T10:00:21.015Z,26.10
2023-05-28T10:03:12.610Z,25.07
2023-05-28T10:05:51.312Z,25.36
2023-05-28T10:08:27.005Z,25.79
2023-05-28T10:11:01.620Z,25.24
2023-05-28T10:13:34.931Z,25.35
2023-05-28T10:16:08.796Z,25.61
2023-05-28T10:18:44.229Z,25.41
2023-05-28T10:21:17.999Z,25.44
2023-05-28T10:23:51.584Z,25.22
2023-05-28T10:26:27.208Z,24.79
2023-05-28T10:29:01.177Z,24.44
2023-05-28T10:31:34.406Z,24.95
2023-05-28T10:34:18.001Z,25.23
2023-05-28T10:37:03.344Z,25.74
2023-05-28T10:39:41.589Z,25.92
2023-05-28T10:42:19.739Z,25.96
2023-05-28T10:45:07.727Z,25.54
2023-05-28T10:47:44.187Z,25.39
2023-05-28T10:50:20.163Z,25.58
2023-05-28T10:53:08.039Z,25.71
2023-05-28T10:55:52.824Z,25.19
2023-05-28T10:58:29.309Z,25.02
2023-05-28T11:01:06.463Z,24.96
2023-05-28T11:03:45.101Z,25.23
2023-05-28T11:06:19.303Z,25.37
2023-05-28T11:08:52.535Z,25.28
2023-05-28T11:11:28.279Z,25.38
2023-05-28T11:14:04.070Z,25.18
2023-05-28T11:16:37.341Z,25.11
2023-05-28T11:19:11.597Z,24.70
2023-05-28T11:21:54.761Z,24.87
2023-05-28T11:24:27.973Z,24.94
2023-05-28T11:27:01.200Z,25.00
2023-05-28T11:29:35.717Z,25.01
2023-05-28T11:32:09.290Z,25.40
2023-05-28T11:34:42.574Z,25.39
2023-05-28T11:37:15.851Z,25.19
2023-05-28T11:39:52.676Z,25.27
2023-05-28T11:42:27.420Z,24.92
2023-05-28T11:45:01.939Z,25.18
2023-05-28T11:47:36.820Z,25.38
2023-05-28T11:50:12.204Z,25.44
2023-05-28T11:52:46.164Z,25.43
2023-05-28T11:55:20.149Z,25.18
2023-05-28T11:57:56.450Z,24.85
2023-05-28T12:00:36.627Z,25.17
2023-05-28T12:03:13.083Z,25.00
2023-05-28T12:05:46.728Z,25.18
2023-05-28T12:08:21.672Z,24.88
2023-05-28T12:10:55.126Z,24.79
2023-05-28T12:13:34.375Z,24.84
2023-05-28T12:16:10.499Z,25.07
2023-05-28T12:18:44.159Z,25.06
2023-05-28T12:21:21.467Z,25.36
2023-05-28T12:23:56.238Z,25.43
2023-05-28T12:26:30.305Z,25.37
2023-05-28T12:29:03.541Z,25.13
2023-05-28T12:31:38.218Z,25.03
2023-05-28T12:34:11.381Z,25.27
2023-05-28T12:36:44.710Z,25.15
2023-05-28T12:39:17.857Z,25.07
2023-05-28T12:41:51.024Z,24.93
2023-05-28T12:44:24.179Z,24.83
2023-05-28T12:46:58.808Z,24.81
2023-05-28T12:49:32.006Z,25.11
2023-05-28T12:52:05.663Z,25.28
2023-05-28T12:54:38.825Z,25.36
2023-05-28T12:57:12.980Z,25.16
2023-05-28T12:59:46.348Z,25.15
2023-05-28T13:02:21.290Z,25.20
2023-05-28T13:04:54.780Z,25.01
2023-05-28T13:07:28.526Z,25.32
2023-05-28T13:10:01.738Z,25.08
2023-05-28T13:12:37.840Z,25.12
2023-05-28T13:15:12.436Z,24.98
2023-05-28T13:17:47.389Z,24.94
2023-05-28T13:20:20.928Z,24.98
2023-05-28T13:22:54.148Z,24.88
2023-05-28T13:25:27.339Z,24.93
2023-05-28T13:28:02.898Z,24.91
2023-05-28T13:30:36.373Z,25.01
2023-05-28T13:33:11.003Z,24.84
2023-05-28T13:35:44.207Z,25.19
2023-05-28T13:38:18.022Z,25.11
2023-05-28T13:40:51.218Z,25.38
2023-05-28T13:43:24.502Z,25.46
2023-05-28T13:45:57.715Z,25.39
2023-05-28T13:48:32.449Z,25.31
2023-05-28T13:51:06.857Z,25.43
2023-05-28T13:53:40.388Z,25.21
2023-05-28T13:56:13.698Z,25.39
2023-05-28T13:58:46.880Z,25.42
2023-05-28T14:01:20.195Z,25.37
2023-05-28T14:03:54.991Z,25.52
2023-05-28T14:06:28.454Z,25.45
2023-05-28T14:09:01.674Z,25.31
2023-05-28T14:12:03.941Z,25.34
2023-05-28T14:14:28.124Z,25.32
2023-05-28T14:17:01.598Z,25.22
2023-05-28T14:19:36.348Z,25.19
2023-05-28T14:22:09.666Z,24.96
2023-05-28T14:24:42.840Z,25.02
2023-05-28T14:27:16.154Z,25.10
2023-05-28T14:29:49.325Z,25.13
2023-05-28T14:32:22.716Z,25.10
2023-05-28T14:34:57.486Z,25.02
2023-05-28T14:37:30.788Z,24.95
2023-05-28T14:40:05.637Z,25.38
2023-05-28T14:42:38.833Z,25.03
2023-05-28T14:45:12.468Z,25.11
2023-05-28T14:47:45.695Z,25.29
2023-05-28T14:50:21.033Z,25.51
2023-05-28T14:52:54.257Z,25.59
2023-05-28T14:55:27.598Z,25.29
2023-05-28T14:58:00.741Z,25.41
2023-05-28T15:00:33.925Z,25.35
2023-05-28T15:03:07.144Z,25.09
2023-05-28T15:05:41.745Z,25.01
2023-05-28T15:08:15.609Z,25.11
2023-05-28T15:10:48.893Z,25.11
2023-05-28T15:13:22.143Z,25.01
2023-05-28T15:15:55.617Z,24.90
2023-05-28T15:18:29.011Z,25.12
2023-05-28T15:21:03.684Z,25.27
2023-05-28T15:23:37.220Z,25.16
2023-05-28T15:26:10.849Z,25.30
2023-05-28T15:28:44.971Z,25.07
2023-05-28T15:31:21.493Z,25.11
2023-05-28T15:33:55.037Z,24.83
2023-05-28T15:36:31.901Z,25.10
2023-05-28T15:39:05.695Z,25.07
2023-05-28T15:41:39.355Z,25.21
2023-05-28T15:44:13.144Z,24.98
2023-05-28T15:46:46.663Z,24.99
2023-05-28T15:49:19.881Z,24.88
2023-05-28T15:51:54.583Z,24.93
2023-05-28T15:54:28.220Z,24.84
2023-05-28T15:57:01.918Z,24.81
2023-05-28T15:59:35.272Z,24.72
2023-05-28T16:02:09.776Z,24.76
2023-05-28T16:04:43.202Z,24.78
2023-05-28T16:07:18.239Z,24.81
2023-05-28T16:09:51.665Z,24.78
2023-05-28T16:12:26.541Z,24.78
2023-05-28T16:15:03.792Z,24.78
2023-05-28T16:17:40.243Z,24.70
2023-05-28T16:20:14.300Z,24.56
2023-05-28T16:22:49.574Z,24.49
2023-05-28T16:25:24.312Z,24.46
2023-05-28T16:27:57.738Z,24.46
2023-05-28T16:30:31.589Z,24.48
2023-05-28T16:33:05.610Z,24.54
2023-05-28T16:35:40.097Z,24.40
2023-05-28T16:38:15.227Z,24.43
2023-05-28T16:40:49.091Z,24.58
2023-05-28T16:43:23.179Z,24.54
2023-05-28T16:45:59.657Z,24.37
2023-05-28T16:48:34.350Z,24.33
2023-05-28T16:51:10.468Z,24.18
2023-05-28T16:53:45.199Z,24.18
2023-05-28T16:56:18.673Z,24.33
2023-05-28T16:58:51.978Z,24.35
2023-05-28T17:01:25.646Z,24.21
2023-05-28T17:03:58.948Z,24.21
2023-05-28T17:06:32.232Z,24.12
2023-05-28T17:09:09.806Z,24.05
2023-05-28T17:11:42.979Z,24.08
2023-05-28T17:14:16.810Z,23.97
2023-05-28T17:16:50.100Z,23.97
2023-05-28T17:19:23.687Z,24.01
2023-05-28T17:21:57.168Z,24.02
2023-05-28T17:24:31.748Z,23.99
2023-05-28T17:27:06.182Z,23.77
2023-05-28T17:29:39.326Z,23.75
2023-05-28T17:32:12.663Z,23.73
2023-05-28T17:34:45.990Z,23.69
2023-05-28T17:37:19.371Z,23.56
2023-05-28T17:39:54.404Z,23.51
2023-05-28T17:42:28.817Z,23.46
2023-05-28T17:45:02.453Z,23.51
2023-05-28T17:47:35.732Z,23.44
2023-05-28T17:50:10.983Z,23.42
2023-05-28T17:52:44.344Z,23.43
2023-05-28T17:55:19.128Z,23.33
2023-05-28T17:57:52.397Z,23.31
2023-05-28T18:00:25.606Z,23.26
2023-05-28T18:02:59.471Z,23.21
2023-05-28T18:05:33.257Z,23.17
2023-05-28T18:08:06.629Z,23.08
2023-05-28T18:10:41.785Z,22.97
2023-05-28T18:13:15.084Z,22.94
2023-05-28T18:15:49.378Z,22.91
2023-05-28T18:18:22.592Z,22.82
2023-05-28T18:20:56.147Z,22.82
2023-05-28T18:23:31.094Z,22.88
2023-05-28T18:26:06.337Z,22.76
2023-05-28T18:28:39.605Z,22.55
2023-05-28T18:31:12.950Z,22.51
2023-05-28T18:33:46.208Z,22.44
2023-05-28T18:36:19.392Z,22.37
2023-05-28T18:38:52.950Z,22.28
2023-05-28T18:41:27.555Z,22.17
2023-05-28T18:44:01.731Z,22.07
2023-05-28T18:46:35.238Z,21.98
2023-05-28T18:49:08.446Z,21.91
2023-05-28T18:51:41.637Z,21.82
2023-05-28T18:54:15.629Z,21.70
2023-05-28T18:56:50.317Z,21.55
2023-05-28T18:59:23.564Z,21.43
2023-05-28T19:01:57.060Z,21.29
2023-05-28T19:04:30.273Z,21.15
2023-05-28T19:07:04.214Z,21.05
2023-05-28T19:09:37.461Z,20.92
2023-05-28T19:12:11.969Z,20.79
2023-05-28T19:14:45.092Z,20.65
2023-05-28T19:17:18.293Z,20.58
2023-05-28T19:19:51.511Z,20.50
2023-05-28T19:22:24.768Z,20.37
2023-05-28T19:24:59.781Z,20.25
2023-05-28T19:27:34.313Z,20.13
2023-05-28T19:30:09.637Z,20.04
2023-05-28T19:32:42.829Z,19.89
2023-05-28T19:35:16.457Z,19.74
2023-05-28T19:37:51.564Z,19.56
2023-05-28T19:40:24.709Z,19.46
2023-05-28T19:42:59.262Z,19.41
2023-05-28T19:45:33.301Z,19.31
2023-05-28T19:48:06.712Z,19.23
2023-05-28T19:50:40.160Z,19.18
2023-05-28T19:53:13.565Z,19.09
2023-05-28T19:55:46.727Z,19.05
2023-05-28T19:58:22.390Z,19.00
2023-05-28T20:00:56.055Z,18.88
2023-05-28T20:03:29.346Z,18.78
2023-05-28T20:06:02.572Z,18.73
2023-05-28T20:08:35.862Z,18.63
2023-05-28T20:11:09.326Z,18.56
2023-05-28T20:13:44.074Z,18.46
2023-05-28T20:16:18.681Z,18.31
2023-05-28T20:18:55.881Z,18.27
2023-05-28T20:21:32.264Z,18.12
2023-05-28T20:24:06.061Z,17.96
2023-05-28T20:26:39.506Z,17.92
2023-05-28T20:29:15.287Z,17.81
2023-05-28T20:31:48.617Z,17.71
2023-05-28T20:34:21.884Z,17.62
2023-05-28T20:36:55.746Z,17.53
2023-05-28T20:39:30.026Z,17.44
2023-05-28T20:42:04.200Z,17.39
2023-05-28T20:44:38.803Z,17.30
2023-05-28T20:47:12.559Z,17.25
2023-05-28T20:49:45.854Z,17.17
2023-05-28T20:52:19.132Z,17.11
2023-05-28T20:54:52.496Z,17.09
2023-05-28T20:57:44.746Z,16.98
2023-05-28T21:00:22.590Z,16.93
2023-05-28T21:02:59.015Z,16.89
2023-05-28T21:05:32.441Z,16.83
2023-05-28T21:08:05.964Z,16.76
2023-05-28T21:10:40.645Z,16.73
2023-05-28T21:13:14.472Z,16.66
2023-05-28T21:15:49.240Z,16.59
2023-05-28T21:18:22.460Z,16.57
2023-05-28T21:20:57.356Z,16.53
2023-05-28T21:23:31.236Z,16.41
2023-05-28T21:26:04.435Z,16.32
2023-05-28T21:28:37.711Z,16.25
2023-05-28T21:31:12.372Z,16.18
2023-05-28T21:33:45.618Z,16.13
2023-05-28T21:36:18.845Z,16.08
2023-05-28T21:38:52.040Z,15.95
2023-05-28T21:41:25.194Z,15.88
2023-05-28T21:43:58.399Z,15.82
2023-05-28T21:46:33.038Z,15.73
2023-05-28T21:49:06.331Z,15.69
2023-05-28T21:51:39.894Z,15.76
2023-05-28T21:54:13.069Z,15.72
2023-05-28T21:56:46.257Z,15.68
2023-05-28T21:59:20.664Z,15.56
2023-05-28T22:01:55.231Z,15.55
2023-05-28T22:04:28.451Z,15.48
2023-05-28T22:07:01.700Z,15.32
2023-05-28T22:09:34.924Z,15.25
2023-05-28T22:12:09.052Z,15.27
2023-05-28T22:14:42.241Z,15.17
2023-05-28T22:17:19.210Z,15.12
2023-05-28T22:19:52.644Z,15.12
2023-05-28T22:22:25.905Z,15.09
2023-05-28T22:24:59.106Z,14.94
2023-05-28T22:27:32.325Z,14.99
2023-05-28T22:30:07.042Z,14.89
2023-05-28T22:32:41.628Z,14.81
2023-05-28T22:35:14.819Z,14.82
2023-05-28T22:37:49.127Z,14.86
2023-05-28T22:40:22.472Z,14.83
2023-05-28T22:42:55.607Z,14.70
2023-05-28T22:45:28.786Z,14.63
2023-05-28T22:48:05.850Z,14.58
2023-05-28T22:50:39.095Z,14.63
2023-05-28T22:53:12.561Z,14.59
2023-05-28T22:55:46.129Z,14.51
2023-05-28T22:58:19.257Z,14.48
2023-05-28T23:00:52.406Z,14.47
2023-05-28T23:03:27.550Z,14.56
2023-05-28T23:06:00.784Z,14.47
2023-05-28T23:08:33.874Z,14.42
2023-05-28T23:11:07.878Z,14.38
2023-05-28T23:13:41.006Z,14.32
2023-05-28T23:16:14.602Z,14.23
2023-05-28T23:18:51.073Z,14.20
2023-05-28T23:21:24.695Z,14.23
2023-05-28T23:23:58.202Z,14.20
2023-05-28T23:26:31.375Z,14.22
2023-05-28T23:29:05.196Z,14.29
2023-05-28T23:31:38.412Z,14.25
2023-05-28T23:34:13.677Z,14.23
2023-05-28T23:36:48.982Z,14.22
2023-05-28T23:39:23.801Z,14.22
2023-05-28T23:41:57.583Z,14.18
2023-05-28T23:44:31.219Z,14.07
2023-05-28T23:47:04.751Z,14.07
2023-05-28T23:49:39.285Z,14.06
2023-05-28T23:52:12.400Z,14.01
2023-05-28T23:54:45.570Z,14.00
2023-05-28T23:57:18.846Z,13.91
2023-05-28T23:59:51.967Z,13.88
